Time;durP1;ratioP1;P1;durP2;ratioP2;P2;SDS_P1;SDS_P2;PMS_P1;PMS_P2;Temp;Humidity;BMP_temperature;BMP_pressure;BME280_temperature;BME280_humidity;BME280_pressure;Samples;Min_cycle;Max_cycle;Signal;HPM_P1;HPM_P2
2024/01/30 00:01:25;;;;;;;88.30;45.10;;;;;;;;;;137874;1270;22249;-81
2024/01/30 00:04:28;;;;;;;93.50;46.40;;;;;;;;;;137753;1270;22543;-81
2024/01/30 00:07:30;;;;;;;84.50;44.00;;;;;;;;;;137814;1270;22401;-80
2024/01/30 00:10:33;;;;;;;85.60;43.20;;;;;;;;;;137960;1270;22220;-81
2024/01/30 00:13:36;;;;;;;87.70;43.20;;;;;;;;;;137899;1270;22411;-82
2024/01/30 00:16:38;;;;;;;90.90;44.10;;;;;;;;;;137805;1270;22257;-81
2024/01/30 00:19:44;;;;;;;81.20;42.80;;;;;;;;;;137828;1270;22551;-83
2024/01/30 00:22:46;;;;;;;88.70;44.20;;;;;;;;;;137807;1270;22257;-82
2024/01/30 00:25:49;;;;;;;89.90;43.60;;;;;;;;;;137770;1270;22462;-82
2024/01/30 00:28:51;;;;;;;94.10;44.10;;;;;;;;;;137790;1270;22791;-79
2024/01/30 00:31:54;;;;;;;85.20;43.80;;;;;;;;;;137837;1270;22526;-78
2024/01/30 00:34:56;;;;;;;90.70;45.10;;;;;;;;;;137890;1270;23011;-80
2024/01/30 00:37:59;;;;;;;89.70;42.80;;;;;;;;;;137844;1270;22254;-80
2024/01/30 00:41:01;;;;;;;94.90;46.90;;;;;;;;;;137865;1270;22259;-80
2024/01/30 00:44:04;;;;;;;94.10;49.00;;;;;;;;;;137940;1270;22425;-82
2024/01/30 00:47:06;;;;;;;86.00;46.30;;;;;;;;;;137948;1270;22456;-80
2024/01/30 00:50:09;;;;;;;96.10;48.50;;;;;;;;;;137952;1270;22204;-80
2024/01/30 00:53:11;;;;;;;92.60;47.00;;;;;;;;;;137801;1270;22416;-80
2024/01/30 00:56:13;;;;;;;99.30;47.90;;;;;;;;;;137875;1270;22226;-80
2024/01/30 00:59:16;;;;;;;92.90;46.50;;;;;;;;;;137964;1270;22714;-80
2024/01/30 01:02:18;;;;;;;92.90;47.30;;;;;;;;;;137877;1270;22184;-80
2024/01/30 01:05:21;;;;;;;91.50;47.60;;;;;;;;;;137972;1270;22637;-81
2024/01/30 01:08:23;;;;;;;100.10;47.80;;;;;;;;;;137863;1270;22407;-80
2024/01/30 01:11:25;;;;;;;95.80;48.20;;;;;;;;;;137884;1263;22280;-80
2024/01/30 01:14:30;;;;;;;96.20;49.40;;;;;;;;;;137745;1270;22163;-80
2024/01/30 01:17:33;;;;;;;95.40;49.40;;;;;;;;;;137747;1270;22418;-80
2024/01/30 01:20:35;;;;;;;92.70;44.30;;;;;;;;;;137948;1270;22229;-79
2024/01/30 01:23:37;;;;;;;90.40;47.50;;;;;;;;;;137921;1270;22139;-81
2024/01/30 01:26:40;;;;;;;93.20;47.90;;;;;;;;;;137863;1270;22348;-79
2024/01/30 01:29:43;;;;;;;101.40;49.00;;;;;;;;;;137705;1270;23025;-80
2024/01/30 01:32:50;;;;;;;99.00;47.90;;;;;;;;;;137837;1270;22441;-80
2024/01/30 01:35:53;;;;;;;96.30;47.10;;;;;;;;;;137731;1270;22441;-81
2024/01/30 01:38:55;;;;;;;100.50;51.90;;;;;;;;;;137602;1270;22396;-81
2024/01/30 01:41:58;;;;;;;99.90;50.00;;;;;;;;;;137909;1266;22718;-80
2024/01/30 01:45:00;;;;;;;93.50;47.50;;;;;;;;;;137815;1270;22237;-80
2024/01/30 01:48:03;;;;;;;94.90;49.30;;;;;;;;;;137917;1270;22426;-80
2024/01/30 01:51:05;;;;;;;90.90;48.60;;;;;;;;;;137784;1270;22537;-81
2024/01/30 01:54:08;;;;;;;102.00;50.50;;;;;;;;;;137885;1270;22584;-81
2024/01/30 01:57:10;;;;;;;96.10;50.00;;;;;;;;;;137751;1270;22220;-80
2024/01/30 02:00:13;;;;;;;96.20;49.90;;;;;;;;;;137973;1270;22222;-80
2024/01/30 02:03:16;;;;;;;97.90;50.00;;;;;;;;;;137924;1270;22936;-81
2024/01/30 02:06:18;;;;;;;101.10;49.40;;;;;;;;;;137742;1270;22296;-79
2024/01/30 02:09:21;;;;;;;97.70;49.10;;;;;;;;;;137969;1270;22221;-81
2024/01/30 02:12:23;;;;;;;99.40;49.90;;;;;;;;;;137947;1270;22174;-80
2024/01/30 02:15:26;;;;;;;94.80;48.80;;;;;;;;;;137871;1270;22261;-79
2024/01/30 02:18:28;;;;;;;92.30;48.60;;;;;;;;;;137875;1270;23123;-81
2024/01/30 02:21:31;;;;;;;90.30;48.60;;;;;;;;;;137950;1270;22236;-80
2024/01/30 02:24:33;;;;;;;93.40;49.20;;;;;;;;;;137910;1270;22238;-80
2024/01/30 02:27:35;;;;;;;100.80;49.80;;;;;;;;;;137785;1270;22245;-80
2024/01/30 02:30:38;;;;;;;100.10;50.30;;;;;;;;;;137828;1270;22263;-80
2024/01/30 02:33:40;;;;;;;93.90;49.00;;;;;;;;;;137838;1270;22660;-80
2024/01/30 02:36:43;;;;;;;94.60;49.60;;;;;;;;;;137770;1270;22236;-81
2024/01/30 02:39:45;;;;;;;92.80;49.90;;;;;;;;;;137656;1270;22171;-81
2024/01/30 02:42:48;;;;;;;94.00;47.40;;;;;;;;;;137902;1270;22222;-81
2024/01/30 02:45:50;;;;;;;93.40;48.80;;;;;;;;;;137691;1266;22602;-81
2024/01/30 02:48:52;;;;;;;103.50;50.90;;;;;;;;;;137558;1270;22381;-79
2024/01/30 02:51:56;;;;;;;96.30;48.30;;;;;;;;;;137873;1270;22545;-79
2024/01/30 02:54:59;;;;;;;91.30;49.00;;;;;;;;;;137787;1270;22184;-80
2024/01/30 02:58:04;;;;;;;98.30;50.50;;;;;;;;;;137838;1270;22840;-80
2024/01/30 03:01:07;;;;;;;95.80;49.80;;;;;;;;;;137737;1270;22252;-81
2024/01/30 03:04:09;;;;;;;93.00;49.20;;;;;;;;;;137829;1270;22593;-79
2024/01/30 03:07:12;;;;;;;91.50;48.50;;;;;;;;;;137780;1270;22246;-79
2024/01/30 03:10:14;;;;;;;94.70;48.40;;;;;;;;;;137756;1270;22224;-80
2024/01/30 03:13:17;;;;;;;91.20;46.10;;;;;;;;;;137857;1270;22210;-80
2024/01/30 03:16:19;;;;;;;96.90;50.80;;;;;;;;;;137701;1270;22750;-81
2024/01/30 03:19:22;;;;;;;89.20;48.70;;;;;;;;;;137746;1270;22187;-80
2024/01/30 03:22:24;;;;;;;99.00;50.00;;;;;;;;;;137672;1270;22575;-79
2024/01/30 03:25:27;;;;;;;97.90;49.20;;;;;;;;;;137799;1270;22662;-80
2024/01/30 03:28:29;;;;;;;95.40;50.00;;;;;;;;;;137810;1270;22561;-80
2024/01/30 03:31:32;;;;;;;90.30;48.10;;;;;;;;;;137510;1270;22175;-80
2024/01/30 03:34:34;;;;;;;92.60;47.30;;;;;;;;;;137796;1270;22208;-80
2024/01/30 03:37:37;;;;;;;93.70;48.00;;;;;;;;;;137769;1270;22254;-80
2024/01/30 03:40:39;;;;;;;96.50;49.60;;;;;;;;;;137713;1270;22253;-79
2024/01/30 03:43:42;;;;;;;89.90;47.10;;;;;;;;;;137916;1270;22191;-79
2024/01/30 03:46:44;;;;;;;92.30;46.70;;;;;;;;;;137657;1270;22332;-79
2024/01/30 03:49:47;;;;;;;99.20;49.50;;;;;;;;;;137693;1270;22419;-81
2024/01/30 03:52:49;;;;;;;90.60;49.80;;;;;;;;;;137767;1270;22532;-79
2024/01/30 03:55:51;;;;;;;91.50;48.50;;;;;;;;;;137787;1270;22969;-79
2024/01/30 03:58:54;;;;;;;94.80;47.50;;;;;;;;;;137646;1270;22552;-79
2024/01/30 04:01:56;;;;;;;101.00;51.40;;;;;;;;;;137761;1270;22242;-80
2024/01/30 04:04:59;;;;;;;90.40;46.90;;;;;;;;;;137621;1270;22348;-79
2024/01/30 04:08:01;;;;;;;83.90;43.30;;;;;;;;;;137572;1270;22555;-79
2024/01/30 04:11:04;;;;;;;88.70;45.30;;;;;;;;;;137780;1270;22549;-80
2024/01/30 04:14:06;;;;;;;94.70;45.50;;;;;;;;;;137858;1270;22257;-80
2024/01/30 04:17:08;;;;;;;88.70;47.20;;;;;;;;;;138005;1270;22165;-80
2024/01/30 04:20:11;;;;;;;94.10;46.20;;;;;;;;;;137842;1270;22243;-79
2024/01/30 04:23:13;;;;;;;85.10;46.40;;;;;;;;;;137485;1270;236188;-81
2024/01/30 04:26:16;;;;;;;90.20;45.50;;;;;;;;;;137878;1270;22245;-81
2024/01/30 04:29:19;;;;;;;89.10;45.90;;;;;;;;;;137723;1270;22476;-80
2024/01/30 04:32:22;;;;;;;94.80;45.70;;;;;;;;;;137946;1270;22269;-81
2024/01/30 04:35:24;;;;;;;91.30;45.60;;;;;;;;;;137904;1270;22621;-81
2024/01/30 04:38:27;;;;;;;89.70;44.00;;;;;;;;;;137838;1270;22281;-78
2024/01/30 04:41:31;;;;;;;90.20;43.10;;;;;;;;;;137888;1270;22699;-80
2024/01/30 04:44:33;;;;;;;102.20;56.80;;;;;;;;;;137895;1270;22217;-80
2024/01/30 04:47:36;;;;;;;86.60;45.10;;;;;;;;;;137842;1258;22314;-78
2024/01/30 04:50:38;;;;;;;87.60;45.60;;;;;;;;;;137857;1270;22219;-79
2024/01/30 04:53:41;;;;;;;81.00;42.40;;;;;;;;;;137920;1270;22255;-79
2024/01/30 04:56:43;;;;;;;87.50;44.90;;;;;;;;;;137804;1270;22260;-81
2024/01/30 04:59:46;;;;;;;83.00;44.80;;;;;;;;;;137928;1270;22296;-80
2024/01/30 05:02:48;;;;;;;83.30;44.20;;;;;;;;;;137865;1270;22245;-79
2024/01/30 05:05:51;;;;;;;84.60;42.20;;;;;;;;;;137844;1270;22197;-78
2024/01/30 05:08:53;;;;;;;83.40;43.40;;;;;;;;;;137814;1264;22395;-80
2024/01/30 05:11:56;;;;;;;83.90;43.10;;;;;;;;;;137878;1270;22927;-80
2024/01/30 05:14:58;;;;;;;90.40;46.70;;;;;;;;;;137882;1266;22759;-79
2024/01/30 05:18:01;;;;;;;88.60;47.60;;;;;;;;;;137906;1270;22342;-79
2024/01/30 05:21:03;;;;;;;86.60;46.10;;;;;;;;;;137797;1270;22336;-79
2024/01/30 05:24:06;;;;;;;89.60;46.30;;;;;;;;;;137911;1270;22202;-77
2024/01/30 05:27:08;;;;;;;88.40;44.20;;;;;;;;;;137747;1270;22817;-77
2024/01/30 05:30:11;;;;;;;87.20;45.20;;;;;;;;;;137883;1270;22832;-77
2024/01/30 05:33:13;;;;;;;89.40;44.50;;;;;;;;;;137857;1270;22174;-77
2024/01/30 05:36:16;;;;;;;91.90;47.20;;;;;;;;;;137872;1270;22230;-79
2024/01/30 05:39:20;;;;;;;90.30;46.70;;;;;;;;;;137874;1270;22297;-77
2024/01/30 05:42:23;;;;;;;86.70;45.30;;;;;;;;;;137888;1270;22821;-78
2024/01/30 05:45:25;;;;;;;87.20;44.70;;;;;;;;;;137864;1270;22822;-78
2024/01/30 05:48:27;;;;;;;89.80;46.80;;;;;;;;;;137882;1270;22257;-78
2024/01/30 05:51:30;;;;;;;90.60;46.30;;;;;;;;;;137887;1270;22911;-78
2024/01/30 05:54:33;;;;;;;86.60;45.40;;;;;;;;;;137782;1270;22372;-80
2024/01/30 05:57:37;;;;;;;88.50;45.50;;;;;;;;;;137904;1254;22399;-80
2024/01/30 06:00:40;;;;;;;89.80;44.70;;;;;;;;;;137941;1270;22766;-82
2024/01/30 06:03:43;;;;;;;85.60;44.40;;;;;;;;;;137929;1270;22198;-80
2024/01/30 06:06:46;;;;;;;84.90;45.70;;;;;;;;;;137853;1270;22315;-79
2024/01/30 06:09:48;;;;;;;82.70;44.80;;;;;;;;;;137837;1270;22206;-78
2024/01/30 06:12:51;;;;;;;83.60;45.30;;;;;;;;;;137865;1270;22717;-79
2024/01/30 06:15:53;;;;;;;96.60;45.70;;;;;;;;;;137844;1270;22143;-79
2024/01/30 06:18:56;;;;;;;87.00;45.60;;;;;;;;;;137870;1266;22255;-77
2024/01/30 06:21:58;;;;;;;91.50;46.30;;;;;;;;;;137903;1270;22340;-79
2024/01/30 06:25:01;;;;;;;90.20;45.90;;;;;;;;;;137819;1270;22286;-79
2024/01/30 06:28:04;;;;;;;85.50;43.40;;;;;;;;;;137912;1270;22291;-80
2024/01/30 06:31:07;;;;;;;85.70;43.70;;;;;;;;;;137923;1270;22623;-76
2024/01/30 06:34:09;;;;;;;80.70;43.90;;;;;;;;;;137916;1270;22158;-78
2024/01/30 06:37:12;;;;;;;80.70;44.40;;;;;;;;;;137888;1270;23019;-80
2024/01/30 06:40:14;;;;;;;96.20;55.60;;;;;;;;;;137897;1270;22271;-81
2024/01/30 06:43:17;;;;;;;90.90;48.70;;;;;;;;;;137909;1270;22322;-82
2024/01/30 06:46:19;;;;;;;83.90;41.80;;;;;;;;;;137850;1270;22262;-81
2024/01/30 06:49:22;;;;;;;82.80;42.80;;;;;;;;;;137805;1270;22199;-80
2024/01/30 06:52:25;;;;;;;85.30;43.70;;;;;;;;;;137905;1270;22331;-80
2024/01/30 06:55:27;;;;;;;79.50;40.90;;;;;;;;;;137883;1270;22328;-79
2024/01/30 06:58:30;;;;;;;80.80;43.30;;;;;;;;;;137833;1270;22697;-81
2024/01/30 07:01:32;;;;;;;83.40;43.10;;;;;;;;;;137843;1270;22540;-81
2024/01/30 07:04:36;;;;;;;82.00;43.00;;;;;;;;;;137936;1270;22312;-83
2024/01/30 07:07:39;;;;;;;80.00;42.70;;;;;;;;;;137943;1270;22163;-80
2024/01/30 07:10:41;;;;;;;85.90;42.80;;;;;;;;;;137872;1270;22285;-80
2024/01/30 07:13:44;;;;;;;77.80;42.50;;;;;;;;;;137757;1270;22226;-79
2024/01/30 07:16:46;;;;;;;82.30;42.40;;;;;;;;;;137926;1269;23120;-80
2024/01/30 07:19:49;;;;;;;76.70;41.10;;;;;;;;;;137900;1270;22219;-78
2024/01/30 07:22:51;;;;;;;81.00;42.10;;;;;;;;;;137833;1270;22277;-79
2024/01/30 07:25:54;;;;;;;79.10;40.70;;;;;;;;;;137937;1270;22760;-78
2024/01/30 07:28:56;;;;;;;73.60;41.60;;;;;;;;;;137924;1270;22194;-78
2024/01/30 07:31:59;;;;;;;72.30;40.80;;;;;;;;;;137871;1270;22231;-78
2024/01/30 07:35:01;;;;;;;77.40;43.30;;;;;;;;;;137906;1270;22253;-79
2024/01/30 07:38:04;;;;;;;74.20;41.20;;;;;;;;;;137976;1270;22136;-79
2024/01/30 07:41:08;;;;;;;74.10;43.90;;;;;;;;;;137959;1270;22195;-79
2024/01/30 07:44:10;;;;;;;84.90;46.90;;;;;;;;;;137937;1270;22277;-81
2024/01/30 07:47:13;;;;;;;85.50;45.50;;;;;;;;;;137733;1266;22309;-80
2024/01/30 07:50:15;;;;;;;85.20;46.90;;;;;;;;;;137960;1270;22552;-78
2024/01/30 07:53:18;;;;;;;83.10;45.10;;;;;;;;;;137972;1270;22295;-79
2024/01/30 07:56:20;;;;;;;85.00;47.80;;;;;;;;;;137993;1269;22783;-78
2024/01/30 07:59:24;;;;;;;84.90;46.90;;;;;;;;;;137964;1266;22286;-78
2024/01/30 08:02:27;;;;;;;83.70;46.20;;;;;;;;;;137980;1270;22220;-78
2024/01/30 08:05:29;;;;;;;77.00;44.10;;;;;;;;;;137707;1270;22550;-80
2024/01/30 08:08:32;;;;;;;80.60;44.60;;;;;;;;;;137985;1270;22207;-80
2024/01/30 08:11:34;;;;;;;73.00;41.10;;;;;;;;;;137970;1270;22324;-79
2024/01/30 08:14:37;;;;;;;76.40;41.60;;;;;;;;;;138000;1270;22335;-79
2024/01/30 08:17:39;;;;;;;106.40;62.10;;;;;;;;;;137736;1270;22547;-79
2024/01/30 08:20:42;;;;;;;76.40;42.30;;;;;;;;;;137907;1270;22352;-79
2024/01/30 08:23:44;;;;;;;71.20;40.00;;;;;;;;;;137932;1270;22269;-80
2024/01/30 08:26:47;;;;;;;68.30;38.40;;;;;;;;;;137943;1270;22313;-81
2024/01/30 08:29:50;;;;;;;73.20;38.60;;;;;;;;;;137888;1270;22716;-80
2024/01/30 08:32:52;;;;;;;69.40;39.60;;;;;;;;;;137917;1266;22964;-80
2024/01/30 08:35:55;;;;;;;65.80;37.40;;;;;;;;;;137926;1270;22258;-81
2024/01/30 08:38:57;;;;;;;67.10;37.00;;;;;;;;;;137938;1270;22197;-80
2024/01/30 08:42:00;;;;;;;70.50;38.80;;;;;;;;;;137684;1270;22652;-82
2024/01/30 08:45:04;;;;;;;72.60;40.00;;;;;;;;;;137885;1270;22317;-82
2024/01/30 08:48:07;;;;;;;64.70;37.10;;;;;;;;;;138041;1270;22792;-80
2024/01/30 08:51:10;;;;;;;63.90;36.50;;;;;;;;;;137565;1270;22540;-82
2024/01/30 08:54:13;;;;;;;61.50;35.50;;;;;;;;;;137433;1270;22605;-84
2024/01/30 08:57:16;;;;;;;55.90;34.50;;;;;;;;;;138038;1270;22314;-83
2024/01/30 09:00:18;;;;;;;64.60;34.70;;;;;;;;;;138021;1270;22609;-83
2024/01/30 09:03:23;;;;;;;65.60;34.00;;;;;;;;;;138018;1270;22093;-85
2024/01/30 09:06:39;;;;;;;57.40;33.20;;;;;;;;;;137929;1270;22823;-83
2024/01/30 09:09:42;;;;;;;59.20;34.50;;;;;;;;;;137941;1270;22809;-83
2024/01/30 09:12:46;;;;;;;57.90;33.50;;;;;;;;;;137978;1270;22138;-85
2024/01/30 09:15:48;;;;;;;59.70;33.10;;;;;;;;;;137800;1270;22214;-84
2024/01/30 09:18:51;;;;;;;58.00;34.10;;;;;;;;;;137854;1270;22294;-83
2024/01/30 09:21:54;;;;;;;69.60;37.40;;;;;;;;;;137911;1266;22230;-82
2024/01/30 09:24:56;;;;;;;59.40;35.10;;;;;;;;;;137930;1270;22129;-83
2024/01/30 09:27:59;;;;;;;61.80;35.10;;;;;;;;;;137947;1270;22558;-82
2024/01/30 09:31:09;;;;;;;59.60;34.40;;;;;;;;;;137934;1270;22615;-83
2024/01/30 09:34:11;;;;;;;62.50;34.20;;;;;;;;;;137902;1270;22122;-82
2024/01/30 09:37:15;;;;;;;65.30;33.20;;;;;;;;;;137968;1270;22338;-83
2024/01/30 09:40:19;;;;;;;53.20;30.30;;;;;;;;;;137976;1270;22129;-82
2024/01/30 09:43:21;;;;;;;50.50;29.10;;;;;;;;;;137915;1270;22502;-82
2024/01/30 09:46:24;;;;;;;55.60;31.90;;;;;;;;;;137927;1270;22131;-80
2024/01/30 09:49:27;;;;;;;50.30;31.00;;;;;;;;;;137990;1270;22132;-80
2024/01/30 09:52:29;;;;;;;59.30;33.50;;;;;;;;;;137928;1270;22101;-80
2024/01/30 09:55:32;;;;;;;52.00;29.80;;;;;;;;;;137933;1270;22278;-82
2024/01/30 09:58:34;;;;;;;56.90;30.60;;;;;;;;;;137957;1270;22112;-82
2024/01/30 10:01:37;;;;;;;57.30;29.40;;;;;;;;;;137977;1270;22175;-79
2024/01/30 10:04:39;;;;;;;47.70;26.50;;;;;;;;;;137917;1270;22118;-80
2024/01/30 10:07:42;;;;;;;41.90;24.50;;;;;;;;;;137887;1270;22321;-81
2024/01/30 10:10:44;;;;;;;49.70;24.30;;;;;;;;;;137900;1270;22209;-81
2024/01/30 10:13:47;;;;;;;90.40;27.30;;;;;;;;;;137924;1270;22086;-80
2024/01/30 10:16:50;;;;;;;60.30;33.70;;;;;;;;;;137927;1270;22109;-80
2024/01/30 10:19:53;;;;;;;51.70;24.40;;;;;;;;;;137931;1270;22609;-81
2024/01/30 10:22:56;;;;;;;45.00;21.50;;;;;;;;;;137966;1270;22623;-80
2024/01/30 10:25:58;;;;;;;37.10;21.50;;;;;;;;;;137905;1270;22147;-79
2024/01/30 10:29:01;;;;;;;40.20;24.00;;;;;;;;;;137905;1270;22155;-78
2024/01/30 10:32:03;;;;;;;31.80;18.80;;;;;;;;;;137903;1270;22146;-80
2024/01/30 10:35:06;;;;;;;33.40;19.80;;;;;;;;;;137945;1270;22116;-78
2024/01/30 10:38:08;;;;;;;30.10;18.50;;;;;;;;;;137972;1270;22346;-78
2024/01/30 10:41:13;;;;;;;38.30;19.80;;;;;;;;;;137963;1270;22264;-80
2024/01/30 10:44:16;;;;;;;29.40;18.50;;;;;;;;;;137935;1270;22275;-80
2024/01/30 10:47:18;;;;;;;35.60;17.70;;;;;;;;;;137937;1270;22148;-81
2024/01/30 10:50:20;;;;;;;32.90;16.90;;;;;;;;;;137959;1270;22304;-80
2024/01/30 10:53:23;;;;;;;35.40;17.40;;;;;;;;;;137993;1270;22714;-81
2024/01/30 10:56:25;;;;;;;42.40;18.10;;;;;;;;;;137980;1270;22108;-81
2024/01/30 10:59:28;;;;;;;33.80;18.70;;;;;;;;;;137960;1270;22696;-81
2024/01/30 11:02:30;;;;;;;28.50;17.30;;;;;;;;;;137984;1270;22270;-81
2024/01/30 11:05:33;;;;;;;31.60;17.60;;;;;;;;;;137974;1270;22197;-79
2024/01/30 11:08:35;;;;;;;30.90;16.30;;;;;;;;;;137965;1270;22298;-82
2024/01/30 11:11:39;;;;;;;44.10;25.10;;;;;;;;;;137990;1270;22753;-80
2024/01/30 11:14:44;;;;;;;36.60;18.40;;;;;;;;;;138010;1270;22088;-80
2024/01/30 11:17:47;;;;;;;27.40;17.20;;;;;;;;;;137987;1270;22265;-79
2024/01/30 11:20:49;;;;;;;28.00;16.20;;;;;;;;;;137989;1270;22263;-80
2024/01/30 11:23:52;;;;;;;34.30;17.60;;;;;;;;;;138082;1270;22161;-79
2024/01/30 11:26:54;;;;;;;45.60;17.00;;;;;;;;;;138055;1270;22342;-81
2024/01/30 11:29:57;;;;;;;33.60;16.40;;;;;;;;;;138038;1270;22164;-80
2024/01/30 11:32:59;;;;;;;39.70;16.40;;;;;;;;;;137806;1270;22188;-80
2024/01/30 11:36:02;;;;;;;32.70;15.00;;;;;;;;;;137972;1270;22152;-78
2024/01/30 11:39:05;;;;;;;35.70;15.00;;;;;;;;;;137983;1270;22820;-80
2024/01/30 11:42:09;;;;;;;34.00;16.20;;;;;;;;;;137989;1270;22676;-81
2024/01/30 11:45:12;;;;;;;38.20;15.80;;;;;;;;;;137992;1260;22114;-78
2024/01/30 11:48:14;;;;;;;90.10;17.90;;;;;;;;;;138001;1270;22218;-80
2024/01/30 11:51:19;;;;;;;29.20;14.90;;;;;;;;;;137993;1270;22260;-79
2024/01/30 11:54:21;;;;;;;33.90;14.70;;;;;;;;;;137913;1270;22112;-80
2024/01/30 11:57:24;;;;;;;188.80;28.30;;;;;;;;;;137907;1270;22145;-79
2024/01/30 12:00:26;;;;;;;85.40;18.40;;;;;;;;;;137928;1270;22490;-79
2024/01/30 12:03:29;;;;;;;59.30;16.60;;;;;;;;;;138022;1270;22116;-79
2024/01/30 12:06:31;;;;;;;29.40;15.20;;;;;;;;;;137995;1270;22400;-77
2024/01/30 12:09:34;;;;;;;28.60;14.40;;;;;;;;;;137972;1270;22488;-79
2024/01/30 12:12:36;;;;;;;27.80;14.20;;;;;;;;;;137931;1270;22563;-80
2024/01/30 12:15:39;;;;;;;32.20;14.70;;;;;;;;;;137984;1264;22199;-80
2024/01/30 12:18:41;;;;;;;41.40;15.00;;;;;;;;;;137809;1270;22133;-80
2024/01/30 12:21:44;;;;;;;31.40;14.70;;;;;;;;;;137916;1270;22326;-80
2024/01/30 12:24:47;;;;;;;35.30;14.30;;;;;;;;;;137956;1270;22252;-80
2024/01/30 12:27:50;;;;;;;38.90;13.90;;;;;;;;;;137988;1270;22109;-79
2024/01/30 12:30:52;;;;;;;29.80;11.70;;;;;;;;;;137985;1270;22545;-80
2024/01/30 12:33:55;;;;;;;28.40;12.70;;;;;;;;;;137925;1268;22149;-80
2024/01/30 12:36:57;;;;;;;37.50;12.80;;;;;;;;;;137942;1269;22310;-80
2024/01/30 12:40:00;;;;;;;27.30;13.20;;;;;;;;;;137970;1270;22465;-79
2024/01/30 12:43:02;;;;;;;25.30;13.10;;;;;;;;;;137970;1270;22132;-81
2024/01/30 12:46:05;;;;;;;29.30;12.40;;;;;;;;;;137952;1270;22717;-80
2024/01/30 12:49:07;;;;;;;34.30;14.20;;;;;;;;;;137977;1270;22150;-80
2024/01/30 12:52:10;;;;;;;21.50;13.20;;;;;;;;;;137915;1270;22205;-79
2024/01/30 12:55:15;;;;;;;27.20;11.70;;;;;;;;;;137931;1270;22126;-81
2024/01/30 12:58:18;;;;;;;25.30;12.80;;;;;;;;;;137950;1270;22270;-79
2024/01/30 13:01:20;;;;;;;21.60;11.90;;;;;;;;;;137932;1270;22573;-80
2024/01/30 13:04:22;;;;;;;23.10;12.60;;;;;;;;;;137915;1270;22254;-80
2024/01/30 13:07:25;;;;;;;24.60;11.60;;;;;;;;;;137855;1270;22752;-80
2024/01/30 13:10:27;;;;;;;27.70;15.00;;;;;;;;;;137904;1270;22287;-79
2024/01/30 13:13:30;;;;;;;35.70;14.00;;;;;;;;;;137881;1270;22119;-80
2024/01/30 13:16:32;;;;;;;29.70;13.00;;;;;;;;;;137860;1270;22202;-79
2024/01/30 13:19:37;;;;;;;25.00;14.30;;;;;;;;;;137876;1270;22280;-80
2024/01/30 13:22:39;;;;;;;39.60;15.80;;;;;;;;;;137834;1270;22203;-80
2024/01/30 13:25:42;;;;;;;33.70;15.50;;;;;;;;;;137865;1270;22112;-80
2024/01/30 13:28:44;;;;;;;58.50;21.50;;;;;;;;;;137895;1270;22124;-81
2024/01/30 13:31:47;;;;;;;31.90;15.30;;;;;;;;;;137895;1270;22594;-80
2024/01/30 13:34:49;;;;;;;23.40;13.40;;;;;;;;;;137884;1259;22118;-80
2024/01/30 13:37:52;;;;;;;30.10;14.50;;;;;;;;;;137913;1270;22484;-80
2024/01/30 13:40:54;;;;;;;27.60;14.30;;;;;;;;;;137961;1270;22099;-80
2024/01/30 13:43:57;;;;;;;38.70;15.70;;;;;;;;;;137967;1270;22633;-81
2024/01/30 13:46:59;;;;;;;30.60;15.40;;;;;;;;;;138012;1270;22719;-81
2024/01/30 13:50:02;;;;;;;29.40;14.90;;;;;;;;;;137979;1270;22576;-81
2024/01/30 13:53:05;;;;;;;26.60;14.70;;;;;;;;;;137959;1270;22551;-80
2024/01/30 13:56:07;;;;;;;29.00;14.60;;;;;;;;;;138022;1270;22150;-81
2024/01/30 13:59:10;;;;;;;26.40;15.00;;;;;;;;;;137995;1270;22609;-81
2024/01/30 14:02:12;;;;;;;41.30;16.50;;;;;;;;;;138018;1270;22625;-81
2024/01/30 14:05:15;;;;;;;54.20;16.30;;;;;;;;;;138076;1270;22307;-82
2024/01/30 14:08:17;;;;;;;32.80;16.70;;;;;;;;;;137474;1269;22159;-81
2024/01/30 14:12:10;;;;;;;32.40;15.70;;;;;;;;;;133407;1310;544784;-78
2024/01/30 14:15:13;;;;;;;53.80;17.40;;;;;;;;;;136295;1284;22432;-79
2024/01/30 14:18:15;;;;;;;30.80;15.70;;;;;;;;;;136475;1284;22135;-77
2024/01/30 14:21:18;;;;;;;37.00;17.40;;;;;;;;;;136504;1284;22328;-78
2024/01/30 14:24:20;;;;;;;40.50;16.70;;;;;;;;;;136359;1278;185526;-78
2024/01/30 14:27:23;;;;;;;38.40;16.00;;;;;;;;;;136619;1282;22712;-80
2024/01/30 14:30:25;;;;;;;31.60;15.90;;;;;;;;;;136641;1282;22257;-78
2024/01/30 14:33:28;;;;;;;75.70;21.90;;;;;;;;;;136654;1282;22751;-80
2024/01/30 14:36:30;;;;;;;47.40;21.90;;;;;;;;;;136693;1282;22297;-81
2024/01/30 14:39:33;;;;;;;67.30;29.80;;;;;;;;;;136678;1282;22406;-80
2024/01/30 14:42:37;;;;;;;65.20;26.20;;;;;;;;;;136752;1275;22273;-79
2024/01/30 14:45:39;;;;;;;92.90;27.30;;;;;;;;;;136729;1282;22438;-80
2024/01/30 14:48:43;;;;;;;84.50;27.40;;;;;;;;;;136619;1278;22561;-79
2024/01/30 14:51:45;;;;;;;63.20;27.30;;;;;;;;;;137532;1270;22249;-79
2024/01/30 14:54:48;;;;;;;52.80;27.20;;;;;;;;;;137417;1270;22288;-80
2024/01/30 14:57:50;;;;;;;50.70;25.00;;;;;;;;;;137643;1270;23032;-80
2024/01/30 15:00:53;;;;;;;49.90;24.00;;;;;;;;;;137911;1270;22205;-80
2024/01/30 15:03:56;;;;;;;42.10;21.90;;;;;;;;;;137950;1270;22263;-80
2024/01/30 15:06:58;;;;;;;37.40;21.00;;;;;;;;;;137930;1270;22846;-79
2024/01/30 15:10:01;;;;;;;33.60;20.00;;;;;;;;;;137918;1270;22273;-81
2024/01/30 15:13:03;;;;;;;29.10;15.60;;;;;;;;;;137877;1270;22443;-83
2024/01/30 15:16:06;;;;;;;27.10;14.10;;;;;;;;;;137895;1270;22284;-81
2024/01/30 15:19:08;;;;;;;29.10;13.40;;;;;;;;;;137910;1270;22559;-80
2024/01/30 15:22:10;;;;;;;22.90;13.50;;;;;;;;;;137669;1270;22438;-80
2024/01/30 15:25:16;;;;;;;26.90;12.70;;;;;;;;;;137904;1270;22305;-80
2024/01/30 15:28:19;;;;;;;140.50;19.60;;;;;;;;;;137842;1270;22721;-80
2024/01/30 15:31:21;;;;;;;66.10;17.80;;;;;;;;;;137754;1270;22330;-80
2024/01/30 15:34:41;;;;;;;39.90;18.60;;;;;;;;;;132841;1304;544791;-80
2024/01/30 15:37:43;;;;;;;36.00;19.40;;;;;;;;;;136349;1287;22240;-80
2024/01/30 15:40:46;;;;;;;27.40;16.20;;;;;;;;;;136341;1284;22131;-79
2024/01/30 15:43:48;;;;;;;33.80;19.50;;;;;;;;;;136361;1287;22244;-79
2024/01/30 15:46:51;;;;;;;38.90;20.20;;;;;;;;;;135806;1285;178974;-80
2024/01/30 15:49:53;;;;;;;120.00;65.20;;;;;;;;;;136052;1285;22653;-80
2024/01/30 15:52:56;;;;;;;48.50;26.90;;;;;;;;;;136236;1285;22581;-80
2024/01/30 15:55:59;;;;;;;48.80;26.10;;;;;;;;;;135869;1285;22484;-81
2024/01/30 15:59:01;;;;;;;44.10;24.10;;;;;;;;;;135853;1285;22550;-80
2024/01/30 16:02:04;;;;;;;45.10;24.40;;;;;;;;;;136417;1285;22254;-81
2024/01/30 16:05:08;;;;;;;48.10;24.70;;;;;;;;;;135915;1285;22178;-82
2024/01/30 16:08:10;;;;;;;44.10;24.20;;;;;;;;;;136715;1280;21834;-81
2024/01/30 16:11:12;;;;;;;41.30;22.80;;;;;;;;;;136726;1280;22571;-80
2024/01/30 16:14:15;;;;;;;46.20;24.20;;;;;;;;;;136711;1280;22324;-82
2024/01/30 16:17:18;;;;;;;47.60;24.80;;;;;;;;;;136066;1281;22323;-80
2024/01/30 16:20:20;;;;;;;43.40;24.30;;;;;;;;;;136684;1281;22494;-80
2024/01/30 16:23:23;;;;;;;48.50;25.30;;;;;;;;;;136407;1277;22641;-81
2024/01/30 16:26:26;;;;;;;61.40;26.00;;;;;;;;;;136193;1281;22259;-82
2024/01/30 16:29:28;;;;;;;54.30;25.80;;;;;;;;;;136523;1281;22564;-80
2024/01/30 16:32:31;;;;;;;51.50;27.00;;;;;;;;;;136805;1281;22478;-81
2024/01/30 16:35:34;;;;;;;51.00;26.30;;;;;;;;;;136809;1277;22262;-81
2024/01/30 16:38:37;;;;;;;51.00;27.90;;;;;;;;;;136757;1278;22598;-82
2024/01/30 16:41:39;;;;;;;49.30;27.40;;;;;;;;;;137173;1278;22191;-85
2024/01/30 16:44:43;;;;;;;54.30;26.90;;;;;;;;;;136660;1278;22221;-80
2024/01/30 16:47:46;;;;;;;50.00;26.60;;;;;;;;;;136648;1278;22245;-81
2024/01/30 16:50:49;;;;;;;49.30;25.10;;;;;;;;;;136768;1278;22564;-81
2024/01/30 16:53:51;;;;;;;46.40;26.70;;;;;;;;;;136819;1278;22693;-81
2024/01/30 16:56:54;;;;;;;50.00;26.50;;;;;;;;;;136588;1278;22220;-82
2024/01/30 16:59:56;;;;;;;44.80;24.30;;;;;;;;;;136568;1267;22610;-82
2024/01/30 17:02:59;;;;;;;45.30;24.50;;;;;;;;;;137069;1278;22265;-81
2024/01/30 17:06:05;;;;;;;46.30;25.80;;;;;;;;;;136482;1278;22287;-82
2024/01/30 17:09:07;;;;;;;57.40;30.00;;;;;;;;;;136598;1278;22887;-82
2024/01/30 17:12:13;;;;;;;51.50;26.30;;;;;;;;;;136846;1278;22573;-83
2024/01/30 17:15:15;;;;;;;;;;;;;;;;;;136664;1278;22518;-82
2024/01/30 17:18:18;;;;;;;52.50;25.00;;;;;;;;;;136489;1278;22310;-82
2024/01/30 17:21:20;;;;;;;50.00;26.40;;;;;;;;;;136790;1268;23016;-81
2024/01/30 17:24:23;;;;;;;46.10;25.90;;;;;;;;;;136853;1278;22291;-82
2024/01/30 17:27:25;;;;;;;49.70;25.60;;;;;;;;;;136631;1278;22295;-81